sensor_id;sensor_type;location;lat;lon;timestamp;temperature;humidity
3136;DHT22;1578;47.658;9.922;2023-05-10T00:00:52;12.90;99.90
3136;DHT22;1578;47.658;9.922;2023-05-10T00:03:19;13.00;99.90
3136;DHT22;1578;47.658;9.922;2023-05-10T00:05:45;13.00;99.70
3136;DHT22;1578;47.658;9.922;2023-05-10T00:08:10;12.90;99.90
3136;DHT22;1578;47.658;9.922;2023-05-10T00:10:36;13.00;99.90
3136;DHT22;1578;47.658;9.922;2023-05-10T00:13:02;12.90;99.90
3136;DHT22;1578;47.658;9.922;2023-05-10T00:15:28;12.90;99.90
3136;DHT22;1578;47.658;9.922;2023-05-10T00:17:56;13.00;99.90
3136;DHT22;1578;47.658;9.922;2023-05-10T00:20:21;13.00;99.90
3136;DHT22;1578;47.658;9.922;2023-05-10T00:22:47;13.00;99.60
3136;DHT22;1578;47.658;9.922;2023-05-10T00:25:13;13.00;99.90
3136;DHT22;1578;47.658;9.922;2023-05-10T00:27:38;13.00;99.90
3136;DHT22;1578;47.658;9.922;2023-05-10T00:30:04;13.00;99.90
3136;DHT22;1578;47.658;9.922;2023-05-10T00:32:30;12.90;99.90
3136;DHT22;1578;47.658;9.922;2023-05-10T00:34:55;12.80;99.90
3136;DHT22;1578;47.658;9.922;2023-05-10T00:37:21;12.80;99.90
3136;DHT22;1578;47.658;9.922;2023-05-10T00:39:47;12.80;99.90
3136;DHT22;1578;47.658;9.922;2023-05-10T00:42:12;12.80;99.90
3136;DHT22;1578;47.658;9.922;2023-05-10T00:44:38;12.70;99.90
3136;DHT22;1578;47.658;9.922;2023-05-10T00:47:04;12.80;99.90
3136;DHT22;1578;47.658;9.922;2023-05-10T00:49:29;12.70;99.90
3136;DHT22;1578;47.658;9.922;2023-05-10T00:51:55;12.60;99.90
3136;DHT22;1578;47.658;9.922;2023-05-10T00:54:21;12.40;99.90
3136;DHT22;1578;47.658;9.922;2023-05-10T00:56:46;12.40;99.90
3136;DHT22;1578;47.658;9.922;2023-05-10T00:59:15;12.30;99.90
3136;DHT22;1578;47.658;9.922;2023-05-10T01:01:43;12.30;99.90
3136;DHT22;1578;47.658;9.922;2023-05-10T01:04:10;12.30;99.90
3136;DHT22;1578;47.658;9.922;2023-05-10T01:06:37;12.20;99.90
3136;DHT22;1578;47.658;9.922;2023-05-10T01:09:02;12.10;99.90
3136;DHT22;1578;47.658;9.922;2023-05-10T01:11:28;12.10;99.90
3136;DHT22;1578;47.658;9.922;2023-05-10T01:13:57;12.10;99.90
3136;DHT22;1578;47.658;9.922;2023-05-10T01:16:24;12.00;99.90
3136;DHT22;1578;47.658;9.922;2023-05-10T01:18:50;11.90;99.90
3136;DHT22;1578;47.658;9.922;2023-05-10T01:27:07;12.00;99.90
3136;DHT22;1578;47.658;9.922;2023-05-10T01:32:38;12.00;99.90
3136;DHT22;1578;47.658;9.922;2023-05-10T01:35:14;12.00;99.90
3136;DHT22;1578;47.658;9.922;2023-05-10T01:37:52;11.90;99.90
3136;DHT22;1578;47.658;9.922;2023-05-10T01:40:35;12.00;99.90
3136;DHT22;1578;47.658;9.922;2023-05-10T01:43:16;11.90;99.90
3136;DHT22;1578;47.658;9.922;2023-05-10T01:46:05;11.90;99.90
3136;DHT22;1578;47.658;9.922;2023-05-10T01:48:42;12.00;99.90
3136;DHT22;1578;47.658;9.922;2023-05-10T01:51:14;11.90;99.90
3136;DHT22;1578;47.658;9.922;2023-05-10T01:53:43;11.90;99.90
3136;DHT22;1578;47.658;9.922;2023-05-10T01:56:11;11.80;99.90
3136;DHT22;1578;47.658;9.922;2023-05-10T01:58:39;11.80;99.90
3136;DHT22;1578;47.658;9.922;2023-05-10T02:01:05;11.70;99.90
3136;DHT22;1578;47.658;9.922;2023-05-10T02:03:33;11.60;99.90
3136;DHT22;1578;47.658;9.922;2023-05-10T02:06:01;11.70;99.90
3136;DHT22;1578;47.658;9.922;2023-05-10T02:08:28;11.60;99.90
3136;DHT22;1578;47.658;9.922;2023-05-10T02:10:55;11.70;99.90
3136;DHT22;1578;47.658;9.922;2023-05-10T02:13:23;11.70;99.90
3136;DHT22;1578;47.658;9.922;2023-05-10T02:15:50;11.60;99.90
3136;DHT22;1578;47.658;9.922;2023-05-10T02:18:17;11.60;99.90
3136;DHT22;1578;47.658;9.922;2023-05-10T02:20:45;11.60;99.90
3136;DHT22;1578;47.658;9.922;2023-05-10T02:23:12;11.60;99.90
3136;DHT22;1578;47.658;9.922;2023-05-10T02:25:38;11.60;99.90
3136;DHT22;1578;47.658;9.922;2023-05-10T02:28:06;11.60;99.90
3136;DHT22;1578;47.658;9.922;2023-05-10T02:30:33;11.60;99.90
3136;DHT22;1578;47.658;9.922;2023-05-10T02:33:01;11.50;99.90
3136;DHT22;1578;47.658;9.922;2023-05-10T02:35:27;11.50;99.90
3136;DHT22;1578;47.658;9.922;2023-05-10T02:37:54;11.50;99.90
3136;DHT22;1578;47.658;9.922;2023-05-10T02:40:21;11.50;99.90
3136;DHT22;1578;47.658;9.922;2023-05-10T02:42:48;11.60;99.90
3136;DHT22;1578;47.658;9.922;2023-05-10T02:45:21;11.60;99.90
3136;DHT22;1578;47.658;9.922;2023-05-10T02:47:48;11.60;99.90
3136;DHT22;1578;47.658;9.922;2023-05-10T02:50:15;11.60;99.90
3136;DHT22;1578;47.658;9.922;2023-05-10T02:52:44;11.50;99.90
3136;DHT22;1578;47.658;9.922;2023-05-10T02:55:16;11.60;99.90
3136;DHT22;1578;47.658;9.922;2023-05-10T02:57:52;11.50;99.90
3136;DHT22;1578;47.658;9.922;2023-05-10T03:00:19;11.50;99.90
3136;DHT22;1578;47.658;9.922;2023-05-10T03:02:44;11.50;99.90
3136;DHT22;1578;47.658;9.922;2023-05-10T03:05:10;11.50;99.90
3136;DHT22;1578;47.658;9.922;2023-05-10T03:07:35;11.50;99.90
3136;DHT22;1578;47.658;9.922;2023-05-10T03:10:02;11.50;99.90
3136;DHT22;1578;47.658;9.922;2023-05-10T03:14:59;11.60;99.90
3136;DHT22;1578;47.658;9.922;2023-05-10T03:20:06;11.60;99.90
3136;DHT22;1578;47.658;9.922;2023-05-10T03:22:37;11.60;99.90
3136;DHT22;1578;47.658;9.922;2023-05-10T03:25:07;11.60;99.90
3136;DHT22;1578;47.658;9.922;2023-05-10T03:27:36;11.60;99.90
3136;DHT22;1578;47.658;9.922;2023-05-10T03:30:05;11.50;99.90
3136;DHT22;1578;47.658;9.922;2023-05-10T03:32:31;11.50;99.90
3136;DHT22;1578;47.658;9.922;2023-05-10T03:34:59;11.50;99.90
3136;DHT22;1578;47.658;9.922;2023-05-10T03:37:25;11.50;99.90
3136;DHT22;1578;47.658;9.922;2023-05-10T03:39:50;11.50;99.90
3136;DHT22;1578;47.658;9.922;2023-05-10T03:42:16;11.60;99.90
3136;DHT22;1578;47.658;9.922;2023-05-10T03:44:43;11.60;99.90
3136;DHT22;1578;47.658;9.922;2023-05-10T03:47:09;11.60;99.90
3136;DHT22;1578;47.658;9.922;2023-05-10T03:49:34;11.60;99.90
3136;DHT22;1578;47.658;9.922;2023-05-10T03:52:00;11.50;99.90
3136;DHT22;1578;47.658;9.922;2023-05-10T03:54:25;11.50;99.90
3136;DHT22;1578;47.658;9.922;2023-05-10T03:56:51;11.50;99.90
3136;DHT22;1578;47.658;9.922;2023-05-10T03:59:17;11.60;99.90
3136;DHT22;1578;47.658;9.922;2023-05-10T04:01:42;11.50;99.90
3136;DHT22;1578;47.658;9.922;2023-05-10T04:04:08;11.50;99.90
3136;DHT22;1578;47.658;9.922;2023-05-10T04:06:33;11.60;99.90
3136;DHT22;1578;47.658;9.922;2023-05-10T04:08:59;11.50;99.90
3136;DHT22;1578;47.658;9.922;2023-05-10T04:11:29;11.50;99.90
3136;DHT22;1578;47.658;9.922;2023-05-10T04:13:55;11.50;99.90
3136;DHT22;1578;47.658;9.922;2023-05-10T04:16:20;11.40;99.90
3136;DHT22;1578;47.658;9.922;2023-05-10T04:18:46;11.40;99.90
3136;DHT22;1578;47.658;9.922;2023-05-10T04:21:14;11.30;99.90
3136;DHT22;1578;47.658;9.922;2023-05-10T04:23:40;11.30;99.90
3136;DHT22;1578;47.658;9.922;2023-05-10T04:26:06;11.30;99.90
3136;DHT22;1578;47.658;9.922;2023-05-10T04:28:32;11.30;99.90
3136;DHT22;1578;47.658;9.922;2023-05-10T04:31:05;11.30;99.90
3136;DHT22;1578;47.658;9.922;2023-05-10T04:33:31;11.40;99.90
3136;DHT22;1578;47.658;9.922;2023-05-10T04:35:57;11.40;99.90
3136;DHT22;1578;47.658;9.922;2023-05-10T04:38:22;11.30;99.90
3136;DHT22;1578;47.658;9.922;2023-05-10T04:40:48;11.40;99.90
3136;DHT22;1578;47.658;9.922;2023-05-10T04:43:14;11.30;99.90
3136;DHT22;1578;47.658;9.922;2023-05-10T04:45:39;11.30;99.90
3136;DHT22;1578;47.658;9.922;2023-05-10T04:48:05;11.30;99.90
3136;DHT22;1578;47.658;9.922;2023-05-10T04:50:31;11.20;99.90
3136;DHT22;1578;47.658;9.922;2023-05-10T04:52:57;11.20;99.90
3136;DHT22;1578;47.658;9.922;2023-05-10T04:55:24;11.20;99.90
3136;DHT22;1578;47.658;9.922;2023-05-10T04:57:49;11.20;99.90
3136;DHT22;1578;47.658;9.922;2023-05-10T05:00:16;11.20;99.90
3136;DHT22;1578;47.658;9.922;2023-05-10T05:02:43;11.20;99.90
3136;DHT22;1578;47.658;9.922;2023-05-10T05:05:11;11.30;99.90
3136;DHT22;1578;47.658;9.922;2023-05-10T05:07:36;11.20;99.90
3136;DHT22;1578;47.658;9.922;2023-05-10T05:10:07;11.30;99.90
3136;DHT22;1578;47.658;9.922;2023-05-10T05:12:34;11.40;99.90
3136;DHT22;1578;47.658;9.922;2023-05-10T05:15:00;11.40;99.90
3136;DHT22;1578;47.658;9.922;2023-05-10T05:17:26;11.40;99.90
3136;DHT22;1578;47.658;9.922;2023-05-10T05:19:51;11.50;99.90
3136;DHT22;1578;47.658;9.922;2023-05-10T05:22:17;11.60;99.90
3136;DHT22;1578;47.658;9.922;2023-05-10T05:24:44;11.60;99.90
3136;DHT22;1578;47.658;9.922;2023-05-10T05:27:10;11.70;99.90
3136;DHT22;1578;47.658;9.922;2023-05-10T05:29:35;11.70;99.90
3136;DHT22;1578;47.658;9.922;2023-05-10T05:32:01;11.70;99.90
3136;DHT22;1578;47.658;9.922;2023-05-10T05:34:27;11.70;99.90
3136;DHT22;1578;47.658;9.922;2023-05-10T05:36:53;11.80;99.90
3136;DHT22;1578;47.658;9.922;2023-05-10T05:39:19;11.90;99.90
3136;DHT22;1578;47.658;9.922;2023-05-10T05:41:45;11.90;99.90
3136;DHT22;1578;47.658;9.922;2023-05-10T05:44:11;12.00;99.90
3136;DHT22;1578;47.658;9.922;2023-05-10T05:46:37;12.00;99.90
3136;DHT22;1578;47.658;9.922;2023-05-10T05:49:02;12.00;99.90
3136;DHT22;1578;47.658;9.922;2023-05-10T05:51:30;12.10;99.90
3136;DHT22;1578;47.658;9.922;2023-05-10T05:53:56;12.20;99.90
3136;DHT22;1578;47.658;9.922;2023-05-10T05:56:21;12.30;99.90
3136;DHT22;1578;47.658;9.922;2023-05-10T05:58:52;12.30;99.90
3136;DHT22;1578;47.658;9.922;2023-05-10T06:01:18;12.20;99.90
3136;DHT22;1578;47.658;9.922;2023-05-10T06:03:43;12.20;99.90
3136;DHT22;1578;47.658;9.922;2023-05-10T06:06:09;12.10;99.90
3136;DHT22;1578;47.658;9.922;2023-05-10T06:08:35;12.10;99.90
3136;DHT22;1578;47.658;9.922;2023-05-10T06:11:01;12.10;99.90
3136;DHT22;1578;47.658;9.922;2023-05-10T06:13:26;12.00;99.90
3136;DHT22;1578;47.658;9.922;2023-05-10T06:16:00;12.10;99.90
3136;DHT22;1578;47.658;9.922;2023-05-10T06:18:26;12.10;99.90
3136;DHT22;1578;47.658;9.922;2023-05-10T06:20:52;12.20;99.90
3136;DHT22;1578;47.658;9.922;2023-05-10T06:23:17;12.30;99.90
3136;DHT22;1578;47.658;9.922;2023-05-10T06:25:43;12.20;99.90
3136;DHT22;1578;47.658;9.922;2023-05-10T06:28:09;12.30;99.90
3136;DHT22;1578;47.658;9.922;2023-05-10T06:30:36;12.30;99.90
3136;DHT22;1578;47.658;9.922;2023-05-10T06:33:01;12.30;99.90
3136;DHT22;1578;47.658;9.922;2023-05-10T06:35:28;12.30;99.90
3136;DHT22;1578;47.658;9.922;2023-05-10T06:37:53;12.20;99.90
3136;DHT22;1578;47.658;9.922;2023-05-10T06:40:19;12.30;99.90
3136;DHT22;1578;47.658;9.922;2023-05-10T06:42:45;12.20;99.90
3136;DHT22;1578;47.658;9.922;2023-05-10T06:45:12;12.30;99.90
3136;DHT22;1578;47.658;9.922;2023-05-10T06:47:38;12.30;99.90
3136;DHT22;1578;47.658;9.922;2023-05-10T06:50:03;12.30;99.90
3136;DHT22;1578;47.658;9.922;2023-05-10T06:52:29;12.40;99.90
3136;DHT22;1578;47.658;9.922;2023-05-10T06:54:54;12.40;99.90
3136;DHT22;1578;47.658;9.922;2023-05-10T06:57:20;12.40;99.90
3136;DHT22;1578;47.658;9.922;2023-05-10T06:59:46;12.40;99.90
3136;DHT22;1578;47.658;9.922;2023-05-10T07:02:12;12.40;99.90
3136;DHT22;1578;47.658;9.922;2023-05-10T07:04:38;12.40;99.90
3136;DHT22;1578;47.658;9.922;2023-05-10T07:07:03;12.30;99.90
3136;DHT22;1578;47.658;9.922;2023-05-10T07:09:29;12.40;99.90
3136;DHT22;1578;47.658;9.922;2023-05-10T07:11:55;12.40;99.90
3136;DHT22;1578;47.658;9.922;2023-05-10T07:14:22;12.30;99.90
3136;DHT22;1578;47.658;9.922;2023-05-10T07:16:48;12.30;99.90
3136;DHT22;1578;47.658;9.922;2023-05-10T07:19:14;12.20;99.90
3136;DHT22;1578;47.658;9.922;2023-05-10T07:21:40;12.10;99.90
3136;DHT22;1578;47.658;9.922;2023-05-10T07:24:07;12.10;99.90
3136;DHT22;1578;47.658;9.922;2023-05-10T07:26:33;12.00;99.90
3136;DHT22;1578;47.658;9.922;2023-05-10T07:28:59;12.00;99.90
3136;DHT22;1578;47.658;9.922;2023-05-10T07:31:24;12.00;99.90
3136;DHT22;1578;47.658;9.922;2023-05-10T07:33:50;12.10;99.90
3136;DHT22;1578;47.658;9.922;2023-05-10T07:36:15;12.10;99.90
3136;DHT22;1578;47.658;9.922;2023-05-10T07:38:41;12.20;99.90
3136;DHT22;1578;47.658;9.922;2023-05-10T07:41:07;12.10;99.90
3136;DHT22;1578;47.658;9.922;2023-05-10T07:43:32;12.10;99.90
3136;DHT22;1578;47.658;9.922;2023-05-10T07:45:58;12.20;99.90
3136;DHT22;1578;47.658;9.922;2023-05-10T07:48:25;12.20;99.90
3136;DHT22;1578;47.658;9.922;2023-05-10T07:50:51;12.20;99.90
3136;DHT22;1578;47.658;9.922;2023-05-10T07:53:17;12.20;99.90
3136;DHT22;1578;47.658;9.922;2023-05-10T07:55:44;12.20;99.90
3136;DHT22;1578;47.658;9.922;2023-05-10T07:58:09;12.30;99.90
3136;DHT22;1578;47.658;9.922;2023-05-10T08:00:35;12.30;99.90
3136;DHT22;1578;47.658;9.922;2023-05-10T08:03:00;12.30;99.90
3136;DHT22;1578;47.658;9.922;2023-05-10T08:05:26;12.10;99.90
3136;DHT22;1578;47.658;9.922;2023-05-10T08:07:52;12.10;99.90
3136;DHT22;1578;47.658;9.922;2023-05-10T08:10:17;12.10;99.90
3136;DHT22;1578;47.658;9.922;2023-05-10T08:12:43;12.00;99.90
3136;DHT22;1578;47.658;9.922;2023-05-10T08:15:09;12.00;99.90
3136;DHT22;1578;47.658;9.922;2023-05-10T08:17:35;12.10;99.90
3136;DHT22;1578;47.658;9.922;2023-05-10T08:20:00;12.10;99.90
3136;DHT22;1578;47.658;9.922;2023-05-10T08:22:26;12.20;99.90
3136;DHT22;1578;47.658;9.922;2023-05-10T08:24:52;12.20;99.90
3136;DHT22;1578;47.658;9.922;2023-05-10T08:27:17;12.20;99.90
3136;DHT22;1578;47.658;9.922;2023-05-10T08:29:43;12.30;99.90
3136;DHT22;1578;47.658;9.922;2023-05-10T08:32:08;12.30;99.90
3136;DHT22;1578;47.658;9.922;2023-05-10T08:34:34;12.50;99.90
3136;DHT22;1578;47.658;9.922;2023-05-10T08:36:59;12.50;99.90
3136;DHT22;1578;47.658;9.922;2023-05-10T08:39:25;12.50;99.90
3136;DHT22;1578;47.658;9.922;2023-05-10T08:41:51;12.60;99.90
3136;DHT22;1578;47.658;9.922;2023-05-10T08:44:19;12.60;98.70
3136;DHT22;1578;47.658;9.922;2023-05-10T08:46:46;12.60;99.90
3136;DHT22;1578;47.658;9.922;2023-05-10T08:49:17;12.60;99.20
3136;DHT22;1578;47.658;9.922;2023-05-10T08:51:53;12.60;99.50
3136;DHT22;1578;47.658;9.922;2023-05-10T08:54:21;12.50;97.60
3136;DHT22;1578;47.658;9.922;2023-05-10T08:56:47;12.50;98.80
3136;DHT22;1578;47.658;9.922;2023-05-10T08:59:13;12.50;98.70
3136;DHT22;1578;47.658;9.922;2023-05-10T09:01:40;12.40;98.90
3136;DHT22;1578;47.658;9.922;2023-05-10T09:04:07;12.50;98.90
3136;DHT22;1578;47.658;9.922;2023-05-10T09:06:33;12.50;99.10
3136;DHT22;1578;47.658;9.922;2023-05-10T09:08:59;12.50;98.20
3136;DHT22;1578;47.658;9.922;2023-05-10T09:11:25;12.50;98.10
3136;DHT22;1578;47.658;9.922;2023-05-10T09:13:54;12.50;98.50
3136;DHT22;1578;47.658;9.922;2023-05-10T09:16:21;12.60;99.20
3136;DHT22;1578;47.658;9.922;2023-05-10T09:18:46;12.50;96.50
3136;DHT22;1578;47.658;9.922;2023-05-10T09:21:12;12.40;98.30
3136;DHT22;1578;47.658;9.922;2023-05-10T09:23:43;12.40;95.50
3136;DHT22;1578;47.658;9.922;2023-05-10T09:26:08;12.50;98.80
3136;DHT22;1578;47.658;9.922;2023-05-10T09:28:34;12.60;97.60
3136;DHT22;1578;47.658;9.922;2023-05-10T09:31:15;12.60;96.90
3136;DHT22;1578;47.658;9.922;2023-05-10T09:33:48;12.70;97.00
3136;DHT22;1578;47.658;9.922;2023-05-10T09:36:14;12.80;98.10
3136;DHT22;1578;47.658;9.922;2023-05-10T09:38:51;13.00;91.50
3136;DHT22;1578;47.658;9.922;2023-05-10T09:41:21;13.00;92.30
3136;DHT22;1578;47.658;9.922;2023-05-10T09:43:48;12.90;92.00
3136;DHT22;1578;47.658;9.922;2023-05-10T09:46:15;13.00;94.40
3136;DHT22;1578;47.658;9.922;2023-05-10T09:48:45;12.90;92.00
3136;DHT22;1578;47.658;9.922;2023-05-10T09:51:19;12.70;91.90
3136;DHT22;1578;47.658;9.922;2023-05-10T09:53:45;12.50;95.50
3136;DHT22;1578;47.658;9.922;2023-05-10T09:56:11;12.40;95.90
3136;DHT22;1578;47.658;9.922;2023-05-10T09:58:37;12.40;93.80
3136;DHT22;1578;47.658;9.922;2023-05-10T10:01:11;12.30;92.00
3136;DHT22;1578;47.658;9.922;2023-05-10T10:03:42;12.20;94.30
3136;DHT22;1578;47.658;9.922;2023-05-10T10:06:08;12.10;94.90
3136;DHT22;1578;47.658;9.922;2023-05-10T10:08:34;12.20;96.00
3136;DHT22;1578;47.658;9.922;2023-05-10T10:11:00;12.30;98.70
3136;DHT22;1578;47.658;9.922;2023-05-10T10:13:26;12.40;99.10
3136;DHT22;1578;47.658;9.922;2023-05-10T10:15:54;12.40;95.70
3136;DHT22;1578;47.658;9.922;2023-05-10T10:18:20;12.40;93.80
3136;DHT22;1578;47.658;9.922;2023-05-10T10:20:53;12.50;96.80
3136;DHT22;1578;47.658;9.922;2023-05-10T10:23:19;12.50;95.70
3136;DHT22;1578;47.658;9.922;2023-05-10T10:25:45;12.50;93.60
3136;DHT22;1578;47.658;9.922;2023-05-10T10:30:51;12.30;95.50
3136;DHT22;1578;47.658;9.922;2023-05-10T10:36:15;12.20;94.30
3136;DHT22;1578;47.658;9.922;2023-05-10T10:41:30;12.40;94.30
3136;DHT22;1578;47.658;9.922;2023-05-10T10:47:03;12.60;96.10
3136;DHT22;1578;47.658;9.922;2023-05-10T10:50:08;12.80;94.20
3136;DHT22;1578;47.658;9.922;2023-05-10T10:52:39;12.80;94.90
3136;DHT22;1578;47.658;9.922;2023-05-10T11:02:58;12.70;91.00
3136;DHT22;1578;47.658;9.922;2023-05-10T11:05:43;12.70;93.10
3136;DHT22;1578;47.658;9.922;2023-05-10T11:08:19;12.90;95.30
3136;DHT22;1578;47.658;9.922;2023-05-10T11:13:46;12.90;92.00
3136;DHT22;1578;47.658;9.922;2023-05-10T11:21:28;12.60;91.30
3136;DHT22;1578;47.658;9.922;2023-05-10T11:23:56;12.60;90.30
3136;DHT22;1578;47.658;9.922;2023-05-10T11:26:23;12.50;92.30
3136;DHT22;1578;47.658;9.922;2023-05-10T11:28:53;12.50;90.60
3136;DHT22;1578;47.658;9.922;2023-05-10T11:31:20;12.40;89.80
3136;DHT22;1578;47.658;9.922;2023-05-10T11:33:51;12.30;91.10
3136;DHT22;1578;47.658;9.922;2023-05-10T11:36:23;12.40;92.80
3136;DHT22;1578;47.658;9.922;2023-05-10T11:38:49;12.50;91.90
3136;DHT22;1578;47.658;9.922;2023-05-10T11:41:17;12.70;91.00
3136;DHT22;1578;47.658;9.922;2023-05-10T11:43:46;12.80;90.80
3136;DHT22;1578;47.658;9.922;2023-05-10T11:46:13;12.80;91.20
3136;DHT22;1578;47.658;9.922;2023-05-10T11:48:39;12.90;87.50
3136;DHT22;1578;47.658;9.922;2023-05-10T11:51:07;12.70;82.40
3136;DHT22;1578;47.658;9.922;2023-05-10T11:53:33;12.50;86.10
3136;DHT22;1578;47.658;9.922;2023-05-10T11:56:11;12.30;90.00
3136;DHT22;1578;47.658;9.922;2023-05-10T11:58:38;12.10;90.40
3136;DHT22;1578;47.658;9.922;2023-05-10T12:01:05;12.10;91.70
3136;DHT22;1578;47.658;9.922;2023-05-10T12:03:31;12.20;91.70
3136;DHT22;1578;47.658;9.922;2023-05-10T12:05:58;12.20;90.00
3136;DHT22;1578;47.658;9.922;2023-05-10T12:08:25;12.20;90.50
3136;DHT22;1578;47.658;9.922;2023-05-10T12:10:52;12.20;90.20
3136;DHT22;1578;47.658;9.922;2023-05-10T12:13:18;12.30;83.10
3136;DHT22;1578;47.658;9.922;2023-05-10T12:15:44;12.30;87.00
3136;DHT22;1578;47.658;9.922;2023-05-10T12:18:10;12.40;83.20
3136;DHT22;1578;47.658;9.922;2023-05-10T12:20:37;12.50;83.90
3136;DHT22;1578;47.658;9.922;2023-05-10T12:23:03;12.60;88.90
3136;DHT22;1578;47.658;9.922;2023-05-10T12:25:36;12.80;83.20
3136;DHT22;1578;47.658;9.922;2023-05-10T12:28:05;12.90;88.40
3136;DHT22;1578;47.658;9.922;2023-05-10T12:30:32;13.00;91.60
3136;DHT22;1578;47.658;9.922;2023-05-10T12:33:11;13.10;86.40
3136;DHT22;1578;47.658;9.922;2023-05-10T12:36:03;13.30;86.30
3136;DHT22;1578;47.658;9.922;2023-05-10T12:41:07;13.90;70.00
3136;DHT22;1578;47.658;9.922;2023-05-10T12:43:34;13.90;71.70
3136;DHT22;1578;47.658;9.922;2023-05-10T12:46:11;13.70;71.40
3136;DHT22;1578;47.658;9.922;2023-05-10T12:48:39;13.60;63.50
3136;DHT22;1578;47.658;9.922;2023-05-10T12:51:06;13.60;66.40
3136;DHT22;1578;47.658;9.922;2023-05-10T12:53:38;13.60;71.90
3136;DHT22;1578;47.658;9.922;2023-05-10T12:56:03;13.70;76.30
3136;DHT22;1578;47.658;9.922;2023-05-10T12:58:29;13.80;69.30
3136;DHT22;1578;47.658;9.922;2023-05-10T13:00:55;13.80;65.30
3136;DHT22;1578;47.658;9.922;2023-05-10T13:03:22;13.70;64.80
3136;DHT22;1578;47.658;9.922;2023-05-10T13:05:47;13.40;64.30
3136;DHT22;1578;47.658;9.922;2023-05-10T13:08:13;13.20;68.80
3136;DHT22;1578;47.658;9.922;2023-05-10T13:10:39;13.00;79.80
3136;DHT22;1578;47.658;9.922;2023-05-10T13:13:05;12.90;83.60
3136;DHT22;1578;47.658;9.922;2023-05-10T13:15:31;13.00;84.20
3136;DHT22;1578;47.658;9.922;2023-05-10T13:17:57;13.10;84.80
3136;DHT22;1578;47.658;9.922;2023-05-10T13:20:22;13.20;83.30
3136;DHT22;1578;47.658;9.922;2023-05-10T13:22:48;13.20;73.50
3136;DHT22;1578;47.658;9.922;2023-05-10T13:25:14;13.10;74.10
3136;DHT22;1578;47.658;9.922;2023-05-10T13:27:40;13.00;73.70
3136;DHT22;1578;47.658;9.922;2023-05-10T13:30:07;12.90;75.80
3136;DHT22;1578;47.658;9.922;2023-05-10T13:32:33;13.00;85.80
3136;DHT22;1578;47.658;9.922;2023-05-10T13:34:58;13.10;74.60
3136;DHT22;1578;47.658;9.922;2023-05-10T13:37:25;13.10;72.00
3136;DHT22;1578;47.658;9.922;2023-05-10T13:39:51;13.00;76.20
3136;DHT22;1578;47.658;9.922;2023-05-10T13:42:17;13.10;72.50
3136;DHT22;1578;47.658;9.922;2023-05-10T13:44:43;13.10;73.40
3136;DHT22;1578;47.658;9.922;2023-05-10T13:47:08;13.10;77.20
3136;DHT22;1578;47.658;9.922;2023-05-10T13:49:34;13.20;73.60
3136;DHT22;1578;47.658;9.922;2023-05-10T13:52:00;13.30;74.40
3136;DHT22;1578;47.658;9.922;2023-05-10T13:54:35;13.50;72.40
3136;DHT22;1578;47.658;9.922;2023-05-10T13:57:01;13.70;74.80
3136;DHT22;1578;47.658;9.922;2023-05-10T13:59:28;13.80;66.90
3136;DHT22;1578;47.658;9.922;2023-05-10T14:01:54;13.80;61.20
3136;DHT22;1578;47.658;9.922;2023-05-10T14:04:19;13.70;69.90
3136;DHT22;1578;47.658;9.922;2023-05-10T14:06:45;13.60;54.90
3136;DHT22;1578;47.658;9.922;2023-05-10T14:09:11;13.30;62.50
3136;DHT22;1578;47.658;9.922;2023-05-10T14:11:37;13.40;55.90
3136;DHT22;1578;47.658;9.922;2023-05-10T14:14:07;13.40;59.00
3136;DHT22;1578;47.658;9.922;2023-05-10T14:16:33;13.40;65.40
3136;DHT22;1578;47.658;9.922;2023-05-10T14:18:58;13.60;63.10
3136;DHT22;1578;47.658;9.922;2023-05-10T14:21:24;13.60;63.40
3136;DHT22;1578;47.658;9.922;2023-05-10T14:23:49;13.70;61.30
3136;DHT22;1578;47.658;9.922;2023-05-10T14:26:15;13.60;54.50
3136;DHT22;1578;47.658;9.922;2023-05-10T14:28:41;13.60;56.40
3136;DHT22;1578;47.658;9.922;2023-05-10T14:31:10;13.60;56.80
3136;DHT22;1578;47.658;9.922;2023-05-10T14:33:43;13.60;64.80
3136;DHT22;1578;47.658;9.922;2023-05-10T14:36:10;13.70;57.20
3136;DHT22;1578;47.658;9.922;2023-05-10T14:38:39;13.70;59.20
3136;DHT22;1578;47.658;9.922;2023-05-10T14:41:05;13.80;60.80
3136;DHT22;1578;47.658;9.922;2023-05-10T14:43:34;13.90;60.00
3136;DHT22;1578;47.658;9.922;2023-05-10T14:46:02;13.90;60.80
3136;DHT22;1578;47.658;9.922;2023-05-10T14:48:29;13.90;61.50
3136;DHT22;1578;47.658;9.922;2023-05-10T14:50:57;13.90;64.00
3136;DHT22;1578;47.658;9.922;2023-05-10T14:53:23;14.00;56.00
3136;DHT22;1578;47.658;9.922;2023-05-10T14:55:49;13.90;60.60
3136;DHT22;1578;47.658;9.922;2023-05-10T14:58:14;14.00;64.10
3136;DHT22;1578;47.658;9.922;2023-05-10T15:00:40;14.00;57.10
3136;DHT22;1578;47.658;9.922;2023-05-10T15:03:06;14.00;55.90
3136;DHT22;1578;47.658;9.922;2023-05-10T15:05:32;13.90;55.00
3136;DHT22;1578;47.658;9.922;2023-05-10T15:07:57;14.00;52.80
3136;DHT22;1578;47.658;9.922;2023-05-10T15:10:23;13.90;56.30
3136;DHT22;1578;47.658;9.922;2023-05-10T15:12:49;13.90;54.50
3136;DHT22;1578;47.658;9.922;2023-05-10T15:15:15;13.80;54.70
3136;DHT22;1578;47.658;9.922;2023-05-10T15:17:40;13.80;57.30
3136;DHT22;1578;47.658;9.922;2023-05-10T15:20:07;13.80;55.50
3136;DHT22;1578;47.658;9.922;2023-05-10T15:22:32;13.80;58.90
3136;DHT22;1578;47.658;9.922;2023-05-10T15:24:58;13.80;55.80
3136;DHT22;1578;47.658;9.922;2023-05-10T15:27:25;13.90;54.70
3136;DHT22;1578;47.658;9.922;2023-05-10T15:29:51;13.90;54.70
3136;DHT22;1578;47.658;9.922;2023-05-10T15:32:17;13.90;53.10
3136;DHT22;1578;47.658;9.922;2023-05-10T15:34:42;14.00;57.30
3136;DHT22;1578;47.658;9.922;2023-05-10T15:37:08;14.00;48.90
3136;DHT22;1578;47.658;9.922;2023-05-10T15:39:34;13.90;49.50
3136;DHT22;1578;47.658;9.922;2023-05-10T15:41:59;13.80;50.00
3136;DHT22;1578;47.658;9.922;2023-05-10T15:44:26;13.80;49.20
3136;DHT22;1578;47.658;9.922;2023-05-10T15:46:52;13.80;48.90
3136;DHT22;1578;47.658;9.922;2023-05-10T15:49:17;13.80;50.00
3136;DHT22;1578;47.658;9.922;2023-05-10T15:51:43;13.70;49.90
3136;DHT22;1578;47.658;9.922;2023-05-10T15:54:09;13.60;52.20
3136;DHT22;1578;47.658;9.922;2023-05-10T15:56:35;13.70;51.30
3136;DHT22;1578;47.658;9.922;2023-05-10T15:59:00;13.60;57.20
3136;DHT22;1578;47.658;9.922;2023-05-10T16:01:26;13.60;53.40
3136;DHT22;1578;47.658;9.922;2023-05-10T16:03:52;13.60;52.10
3136;DHT22;1578;47.658;9.922;2023-05-10T16:06:18;13.50;49.70
3136;DHT22;1578;47.658;9.922;2023-05-10T16:08:44;13.50;55.60
3136;DHT22;1578;47.658;9.922;2023-05-10T16:11:09;13.50;56.40
3136;DHT22;1578;47.658;9.922;2023-05-10T16:13:35;13.50;53.90
3136;DHT22;1578;47.658;9.922;2023-05-10T16:16:01;13.40;52.50
3136;DHT22;1578;47.658;9.922;2023-05-10T16:18:26;13.40;52.80
3136;DHT22;1578;47.658;9.922;2023-05-10T16:20:52;13.50;49.70
3136;DHT22;1578;47.658;9.922;2023-05-10T16:23:18;13.30;52.30
3136;DHT22;1578;47.658;9.922;2023-05-10T16:25:44;13.30;54.10
3136;DHT22;1578;47.658;9.922;2023-05-10T16:28:10;13.20;57.20
3136;DHT22;1578;47.658;9.922;2023-05-10T16:30:35;13.30;57.80
3136;DHT22;1578;47.658;9.922;2023-05-10T16:33:02;13.30;54.00
3136;DHT22;1578;47.658;9.922;2023-05-10T16:35:28;13.30;50.80
3136;DHT22;1578;47.658;9.922;2023-05-10T16:37:56;13.30;53.40
3136;DHT22;1578;47.658;9.922;2023-05-10T16:40:21;13.20;52.50
3136;DHT22;1578;47.658;9.922;2023-05-10T16:42:48;13.10;53.40
3136;DHT22;1578;47.658;9.922;2023-05-10T16:45:14;13.10;54.90